Hauptseite
METAR-TAF:

METAR-TAF

Flughäfen :

Grise Fiord, Nunavut, Kanada

Breite: 76-25N, Länge: 082-54W, Höhe: 45 m

Beobachtung

Neuester Wetterbericht von vor 25 Stunden und 20 Minuten, um 21:00 UTC
Wind 7 kt aus Nordost
Temperatur -22°C
Luftfeuchtigkeit 58%
Luftdruck 1016 hPa
Sichtweite: 24.1 km
Aufgelockert bewölkt in der Höhe von 2900 ft

METAR: CWGZ 082100Z 05007KT 15SM SCT029 M22/M28 A2999 RMK SC3 -20.8/-22.6/0.2/LAST OBS/NEXT 111300Z SLP163

Zeit: 17:20 (22:20 UTC)


TAF: fehlend

Wetterbeobachtungen und Prognosen von mehr als 4000 Flughäfen (METAR und TAF Bericht).

Die verfügbaren Stationen werden durch gelbe und rote Markierungen auf der Karte dargestellt.

Führen Sie die Maus auf sie, um den Namen der Station zu sehen.

Darauf klicken, um die Beobachtung von Wetterbeobachtungen und Prognosen zu sehen.

Um die Karte zu ändern : klicken Sie auf den grünen Tasten mit einem schwarzen Kreuz Zum Vergrößern, auf den grünen Button mit einem Gedankenstrich zu verkleinern, oder auf die grünen Pfeile für benachbarte Karten.


METAR-TAF: